Garneill, Montana
Current Conditions -  °F | °C
As of 11:54 AM on Thursday 30 Oct 2014 (Local Time) from KLWT Reporting Station
Clear Clear  
Wind Chill: 13°   Ceiling: Unl
Heat Index: 13°   Visibility: 10mi
Dew Point: -1°   Wind: 3mph
Humidity: 40%   Direction: NA
Pressure: 30.29"   Gusts: NA
Location:  46.75°N, 109.75°W
Report Text: KLWT 301754Z AUTO VRB03KT 10SM CLR 13/M01 A3029 RMK AO2 SLP256 T01281006 10128 21011 58000
Loading
Personal Weather Stations






























Interactive Weather Map
Tropical Storm Tracking
New forecast layout! Learn more

10-Day Weather Forecast

Advertisements
Track Severe Weather on mobile